Time;durP1;ratioP1;P1;durP2;ratioP2;P2;SDS_P1;SDS_P2;PMS_P1;PMS_P2;Temp;Humidity;BMP_temperature;BMP_pressure;BME280_temperature;BME280_humidity;BME280_pressure;Samples;Min_cycle;Max_cycle;Signal;HPM_P1;HPM_P2
2023/10/25 00:00:43;;;;;;;17.48;8.40;;;9.60;99.90;;;;;;4768462;30;20213;-59
2023/10/25 00:03:12;;;;;;;13.45;7.68;;;9.40;99.90;;;;;;4767290;30;20055;-59
2023/10/25 00:05:38;;;;;;;16.48;7.15;;;9.50;99.90;;;;;;4767278;30;20048;-59
2023/10/25 00:08:03;;;;;;;15.10;7.53;;;9.50;99.90;;;;;;4768555;30;20051;-59
2023/10/25 00:10:29;;;;;;;16.98;7.57;;;9.50;99.90;;;;;;4768548;30;20051;-60
2023/10/25 00:12:55;;;;;;;16.85;7.45;;;9.40;99.90;;;;;;4768877;30;20167;-58
2023/10/25 00:15:21;;;;;;;13.52;7.18;;;9.30;99.90;;;;;;4768803;30;20546;-59
2023/10/25 00:17:48;;;;;;;17.55;7.47;;;9.30;99.90;;;;;;4768864;30;20569;-59
2023/10/25 00:20:14;;;;;;;13.07;7.40;;;9.40;99.90;;;;;;4768413;30;20087;-59
2023/10/25 00:22:40;;;;;;;15.85;7.50;;;9.40;99.90;;;;;;4768097;30;20075;-59
2023/10/25 00:25:06;;;;;;;14.10;7.35;;;9.20;99.90;;;;;;4768237;30;20490;-58
2023/10/25 00:27:32;;;;;;;14.20;7.13;;;9.30;99.90;;;;;;4768554;30;20040;-59
2023/10/25 00:29:57;;;;;;;16.88;7.55;;;9.20;99.90;;;;;;4768517;30;20481;-59
2023/10/25 00:32:23;;;;;;;14.32;8.20;;;9.30;99.90;;;;;;4770813;30;20102;-59
2023/10/25 00:34:48;;;;;;;16.13;8.48;;;9.20;99.90;;;;;;4771796;30;20059;-59
2023/10/25 00:37:14;;;;;;;12.95;7.13;;;9.20;99.90;;;;;;4771666;30;20052;-60
2023/10/25 00:39:40;;;;;;;17.85;7.63;;;9.20;99.90;;;;;;4771739;30;20048;-60
2023/10/25 00:42:06;;;;;;;16.20;7.43;;;9.20;99.90;;;;;;4771668;30;20040;-60
2023/10/25 00:44:32;;;;;;;12.77;6.85;;;9.20;99.90;;;;;;4771690;30;20052;-59
2023/10/25 00:46:58;;;;;;;14.38;7.45;;;9.10;99.90;;;;;;4770130;30;20058;-59
2023/10/25 00:49:24;;;;;;;16.23;7.35;;;9.10;99.90;;;;;;4771341;30;20134;-60
2023/10/25 00:51:50;;;;;;;14.35;7.38;;;9.00;99.90;;;;;;4771002;30;20051;-59
2023/10/25 00:54:17;;;;;;;16.48;7.38;;;9.10;99.90;;;;;;4771659;30;20456;-60
2023/10/25 00:56:42;;;;;;;15.30;7.63;;;9.20;99.90;;;;;;4769768;30;20139;-59
2023/10/25 00:59:11;;;;;;;13.80;6.70;;;9.00;99.90;;;;;;4771261;30;20202;-60
2023/10/25 01:01:37;;;;;;;11.73;6.45;;;9.10;99.90;;;;;;4771111;30;20079;-59
2023/10/25 01:04:03;;;;;;;15.13;7.07;;;9.00;99.90;;;;;;4770765;30;20086;-59
2023/10/25 01:06:28;;;;;;;13.70;6.88;;;9.00;99.90;;;;;;4770886;30;20062;-59
2023/10/25 01:08:54;;;;;;;13.65;6.72;;;8.90;99.90;;;;;;4770931;30;20039;-47
2023/10/25 01:11:20;;;;;;;10.48;5.90;;;8.90;99.90;;;;;;4770976;30;20053;-46
2023/10/25 01:13:46;;;;;;;12.65;6.63;;;9.00;99.90;;;;;;4769604;30;20413;-46
2023/10/25 01:16:11;;;;;;;13.35;6.88;;;9.00;99.90;;;;;;4770765;30;20050;-45
2023/10/25 01:18:37;;;;;;;14.93;6.97;;;8.90;99.90;;;;;;4770877;30;20054;-49
2023/10/25 01:21:03;;;;;;;14.95;6.60;;;8.90;99.90;;;;;;4770661;30;20056;-50
2023/10/25 01:23:29;;;;;;;10.50;5.88;;;9.00;99.90;;;;;;4770979;30;20411;-50
2023/10/25 01:25:54;;;;;;;14.48;6.15;;;8.90;99.90;;;;;;4770814;30;20059;-51
2023/10/25 01:28:20;;;;;;;11.07;6.65;;;8.90;99.90;;;;;;4770915;30;20485;-47
2023/10/25 01:30:46;;;;;;;12.10;6.13;;;8.90;99.90;;;;;;4771007;30;20432;-47
2023/10/25 01:33:12;;;;;;;16.90;6.70;;;8.90;99.90;;;;;;4769346;30;20067;-48
2023/10/25 01:35:38;;;;;;;12.02;6.20;;;8.90;99.90;;;;;;4770573;30;20243;-46
2023/10/25 01:38:04;;;;;;;11.73;5.95;;;8.90;99.90;;;;;;4770525;30;20040;-59
2023/10/25 01:40:30;;;;;;;15.80;6.43;;;8.80;99.90;;;;;;4769171;30;20055;-59
2023/10/25 01:42:55;;;;;;;13.13;6.43;;;8.80;99.90;;;;;;4769370;30;20122;-59
2023/10/25 01:45:23;;;;;;;13.05;6.18;;;8.80;99.90;;;;;;4770702;30;20047;-59
2023/10/25 01:47:49;;;;;;;11.25;6.55;;;8.90;99.90;;;;;;4770581;30;20055;-59
2023/10/25 01:50:15;;;;;;;12.18;6.25;;;8.80;99.90;;;;;;4770534;30;20071;-59
2023/10/25 01:52:41;;;;;;;14.70;6.47;;;8.80;99.90;;;;;;4770224;30;20087;-59
2023/10/25 01:55:07;;;;;;;11.63;6.70;;;8.80;99.90;;;;;;4770221;30;20093;-59
2023/10/25 01:57:33;;;;;;;12.57;6.30;;;8.80;99.90;;;;;;4770125;30;20067;-46
2023/10/25 02:00:01;;;;;;;13.10;6.90;;;8.90;99.90;;;;;;4770095;30;20117;-47
2023/10/25 02:02:27;;;;;;;11.18;5.80;;;8.90;99.90;;;;;;4769927;30;20052;-46
2023/10/25 02:04:52;;;;;;;12.23;6.30;;;8.80;99.90;;;;;;4769945;30;20394;-47
2023/10/25 02:07:18;;;;;;;12.48;6.40;;;8.80;99.90;;;;;;4770012;30;20064;-46
2023/10/25 02:09:44;;;;;;;12.85;6.90;;;8.70;99.90;;;;;;4770282;30;20047;-46
2023/10/25 02:12:09;;;;;;;11.52;6.05;;;8.80;99.90;;;;;;4769981;30;20044;-46
2023/10/25 02:14:36;;;;;;;12.73;6.40;;;8.70;99.90;;;;;;4770131;30;20079;-46
2023/10/25 02:17:02;;;;;;;15.35;6.28;;;8.70;99.90;;;;;;4770094;30;20051;-47
2023/10/25 02:19:27;;;;;;;10.95;6.18;;;8.80;99.90;;;;;;4769900;30;20481;-48
2023/10/25 02:21:53;;;;;;;13.85;6.57;;;8.70;99.90;;;;;;4770030;30;20043;-52
2023/10/25 02:24:19;;;;;;;11.93;6.15;;;8.70;99.90;;;;;;4769903;30;20040;-49
2023/10/25 02:26:44;;;;;;;14.18;6.25;;;8.60;99.90;;;;;;4770060;30;20051;-46
2023/10/25 02:29:10;;;;;;;14.55;7.25;;;8.70;99.90;;;;;;4769800;30;20504;-45
2023/10/25 02:31:37;;;;;;;15.13;7.28;;;8.60;99.90;;;;;;4769832;30;20051;-46
2023/10/25 02:34:03;;;;;;;16.77;6.88;;;8.60;99.90;;;;;;4769801;30;20079;-47
2023/10/25 02:36:30;;;;;;;14.23;6.80;;;8.60;99.90;;;;;;4769565;30;20537;-46
2023/10/25 02:38:57;;;;;;;14.98;6.75;;;8.70;99.90;;;;;;4769379;30;20044;-47
2023/10/25 02:41:23;;;;;;;18.27;7.25;;;8.50;99.90;;;;;;4769163;30;20597;-47
2023/10/25 02:43:51;;;;;;;16.50;7.70;;;8.60;99.90;;;;;;4769432;30;20401;-49
2023/10/25 02:46:17;;;;;;;14.40;7.47;;;8.70;99.90;;;;;;4769345;30;20052;-60
2023/10/25 02:48:43;;;;;;;13.48;7.22;;;8.60;99.90;;;;;;4769544;30;20128;-59
2023/10/25 02:51:08;;;;;;;13.02;7.47;;;8.50;99.90;;;;;;4769286;30;20055;-59
2023/10/25 02:53:34;;;;;;;14.55;8.02;;;8.60;99.90;;;;;;4769264;30;20052;-59
2023/10/25 02:56:01;;;;;;;16.35;7.68;;;8.50;99.90;;;;;;4768015;30;20051;-59
2023/10/25 02:58:27;;;;;;;15.80;8.05;;;8.50;99.90;;;;;;4768929;30;20144;-59
2023/10/25 03:00:52;;;;;;;14.52;7.82;;;8.50;99.90;;;;;;4769236;30;20122;-59
2023/10/25 03:03:18;;;;;;;14.73;7.82;;;8.50;99.90;;;;;;4769039;30;20573;-48
2023/10/25 03:05:44;;;;;;;16.48;7.90;;;8.50;99.90;;;;;;4767943;30;20043;-47
2023/10/25 03:08:10;;;;;;;16.88;7.78;;;8.50;99.90;;;;;;4769085;30;20802;-59
2023/10/25 03:10:35;;;;;;;17.33;8.07;;;8.50;99.90;;;;;;4768874;30;20052;-60
2023/10/25 03:13:02;;;;;;;14.07;8.30;;;8.30;99.90;;;;;;4769300;30;20047;-59
2023/10/25 03:15:28;;;;;;;15.45;7.60;;;8.40;99.90;;;;;;4768965;30;20181;-59
2023/10/25 03:17:54;;;;;;;16.52;8.07;;;8.40;99.90;;;;;;4769616;30;20131;-60
2023/10/25 03:20:20;;;;;;;19.15;9.00;;;8.50;99.90;;;;;;4768840;30;20135;-60
2023/10/25 03:22:46;;;;;;;14.90;8.63;;;8.40;99.90;;;;;;4767763;30;20055;-60
2023/10/25 03:25:11;;;;;;;17.98;9.10;;;8.40;99.90;;;;;;4768886;30;20115;-47
2023/10/25 03:27:37;;;;;;;15.70;8.43;;;8.30;99.90;;;;;;4769243;30;20051;-48
2023/10/25 03:30:04;;;;;;;16.65;10.05;;;8.40;99.90;;;;;;4769060;30;20050;-47
2023/10/25 03:32:30;;;;;;;15.68;9.07;;;8.30;99.90;;;;;;4768851;30;20127;-46
2023/10/25 03:34:56;;;;;;;16.48;9.30;;;8.30;99.90;;;;;;4768880;30;20130;-47
2023/10/25 03:37:21;;;;;;;16.20;9.38;;;8.30;99.90;;;;;;4769137;30;20075;-46
2023/10/25 03:39:47;;;;;;;17.73;9.38;;;8.30;99.90;;;;;;4767437;30;20133;-46
2023/10/25 03:42:13;;;;;;;18.90;9.57;;;8.30;99.90;;;;;;4769172;30;20463;-46
2023/10/25 03:44:39;;;;;;;17.48;9.45;;;8.30;99.90;;;;;;4768725;30;20077;-46
2023/10/25 03:47:04;;;;;;;17.88;9.38;;;8.20;99.90;;;;;;4768561;30;20130;-47
2023/10/25 03:49:30;;;;;;;14.23;9.02;;;8.30;99.90;;;;;;4768951;30;20044;-48
2023/10/25 03:51:56;;;;;;;19.80;9.52;;;8.30;99.90;;;;;;4769021;30;20051;-46
2023/10/25 03:54:22;;;;;;;16.25;9.85;;;8.20;99.90;;;;;;4768763;30;20089;-46
2023/10/25 03:56:47;;;;;;;16.20;9.07;;;8.20;99.90;;;;;;4768333;30;20079;-59
2023/10/25 03:59:15;;;;;;;17.25;10.52;;;8.20;99.90;;;;;;4768224;30;20397;-59
2023/10/25 04:01:41;;;;;;;19.98;10.63;;;8.10;99.90;;;;;;4767604;30;20094;-60
2023/10/25 04:04:07;;;;;;;20.55;10.75;;;8.10;99.90;;;;;;4768421;30;20079;-60
2023/10/25 04:06:33;;;;;;;17.88;10.30;;;8.00;99.90;;;;;;4770767;30;20413;-46
2023/10/25 04:08:58;;;;;;;20.75;11.93;;;8.20;99.90;;;;;;4772153;30;20047;-50
2023/10/25 04:11:24;;;;;;;20.75;11.77;;;8.10;99.90;;;;;;4772253;30;20504;-49
2023/10/25 04:13:50;;;;;;;17.75;11.63;;;8.00;99.90;;;;;;4771628;30;20131;-50
2023/10/25 04:16:15;;;;;;;18.75;11.98;;;8.10;99.90;;;;;;4771737;30;20079;-46
2023/10/25 04:18:41;;;;;;;24.10;12.70;;;8.10;99.90;;;;;;4771956;30;20082;-47
2023/10/25 04:21:12;;;;;;;20.45;12.05;;;8.00;99.90;;;;;;4771815;30;20429;-47
2023/10/25 04:23:39;;;;;;;19.58;12.77;;;8.10;99.90;;;;;;4771987;30;20467;-49
2023/10/25 04:26:06;;;;;;;21.98;12.32;;;8.00;99.90;;;;;;4771892;30;20047;-59
2023/10/25 04:28:32;;;;;;;18.90;13.10;;;8.00;99.90;;;;;;4771938;30;20089;-59
2023/10/25 04:30:58;;;;;;;24.23;12.70;;;8.00;99.90;;;;;;4771957;30;20058;-48
2023/10/25 04:33:24;;;;;;;21.35;13.10;;;8.00;99.90;;;;;;4771914;30;20040;-46
2023/10/25 04:35:50;;;;;;;22.10;13.13;;;8.10;99.90;;;;;;4770519;30;20129;-46
2023/10/25 04:38:15;;;;;;;25.75;13.68;;;8.20;99.90;;;;;;4771775;30;20047;-46
2023/10/25 04:40:41;;;;;;;20.83;12.32;;;8.20;99.90;;;;;;4771537;30;20438;-46
2023/10/25 04:43:06;;;;;;;19.10;11.82;;;8.10;99.90;;;;;;4771409;30;20079;-47
2023/10/25 04:45:34;;;;;;;19.92;12.07;;;8.10;99.90;;;;;;4771622;30;20043;-46
2023/10/25 04:48:00;;;;;;;22.27;12.48;;;8.20;99.90;;;;;;4771665;30;20047;-46
2023/10/25 04:50:26;;;;;;;19.55;12.40;;;8.10;99.90;;;;;;4772493;30;20055;-46
2023/10/25 04:52:52;;;;;;;20.23;11.95;;;8.20;99.90;;;;;;4789272;29;20109;-45
2023/10/25 04:55:18;;;;;;;19.67;11.55;;;8.10;99.90;;;;;;4788925;29;20126;-45
2023/10/25 04:57:44;;;;;;;20.85;12.18;;;8.10;99.90;;;;;;4788942;29;20074;-46
2023/10/25 05:00:10;;;;;;;22.65;11.38;;;8.00;99.90;;;;;;4789206;29;20059;-46
2023/10/25 05:02:38;;;;;;;19.60;11.90;;;8.00;99.90;;;;;;4786383;30;20401;-47
2023/10/25 05:05:05;;;;;;;19.42;11.30;;;8.10;99.90;;;;;;4771189;30;20066;-50
2023/10/25 05:07:31;;;;;;;17.27;12.07;;;8.00;99.90;;;;;;4770950;30;20485;-47
2023/10/25 05:09:57;;;;;;;19.05;10.75;;;8.10;99.90;;;;;;4770884;30;20066;-47
2023/10/25 05:12:34;;;;;;;20.20;10.20;;;8.00;99.90;;;;;;4771302;30;20130;-51
2023/10/25 05:15:01;;;;;;;18.50;10.40;;;8.00;99.90;;;;;;4770706;30;20521;-47
2023/10/25 05:17:27;;;;;;;17.58;10.45;;;7.90;99.90;;;;;;4770844;30;20420;-46
2023/10/25 05:19:53;;;;;;;19.40;11.25;;;8.00;99.90;;;;;;4771048;30;20060;-45
2023/10/25 05:22:22;;;;;;;19.67;10.77;;;8.00;99.90;;;;;;4770755;30;20059;-49
2023/10/25 05:24:48;;;;;;;19.83;10.55;;;8.10;99.90;;;;;;4770937;30;20046;-46
2023/10/25 05:27:14;;;;;;;20.92;10.63;;;7.90;99.90;;;;;;4769729;30;20454;-45
2023/10/25 05:29:40;;;;;;;22.05;10.07;;;7.90;99.90;;;;;;4770771;30;20088;-46
2023/10/25 05:32:10;;;;;;;15.57;10.27;;;8.00;99.90;;;;;;4770736;30;20040;-46
2023/10/25 05:34:36;;;;;;;16.20;10.85;;;7.90;99.90;;;;;;4770863;30;20066;-47
2023/10/25 05:37:02;;;;;;;18.95;11.15;;;7.90;99.90;;;;;;4771005;30;20566;-45
2023/10/25 05:39:28;;;;;;;18.63;9.57;;;7.80;99.90;;;;;;4769345;30;20055;-49
2023/10/25 05:41:54;;;;;;;15.52;9.27;;;7.80;99.90;;;;;;4770618;30;20448;-49
2023/10/25 05:44:20;;;;;;;16.60;9.88;;;7.80;99.90;;;;;;4770438;30;20056;-49
2023/10/25 05:46:45;;;;;;;20.30;10.23;;;7.80;99.90;;;;;;4770409;30;20052;-49
2023/10/25 05:49:11;;;;;;;15.73;9.30;;;7.80;99.90;;;;;;4770409;30;20073;-58
2023/10/25 05:51:37;;;;;;;21.35;9.45;;;7.80;99.90;;;;;;4770258;30;20128;-45
2023/10/25 05:54:03;;;;;;;19.65;9.75;;;7.70;99.90;;;;;;4770621;30;20079;-46
2023/10/25 05:56:29;;;;;;;14.88;9.55;;;7.90;99.90;;;;;;4770358;30;20126;-45
2023/10/25 05:58:56;;;;;;;17.13;9.75;;;7.90;99.90;;;;;;4770565;30;20063;-45
2023/10/25 06:01:48;;;;;;;15.45;8.98;;;7.70;99.90;;;;;;4769562;30;20043;-58
2023/10/25 06:04:14;;;;;;;15.27;8.63;;;7.80;99.90;;;;;;4768595;30;20047;-58
2023/10/25 06:06:43;;;;;;;16.27;8.77;;;7.70;99.90;;;;;;4768604;30;20043;-59
2023/10/25 06:09:10;;;;;;;15.07;8.65;;;7.70;99.90;;;;;;4768791;30;20048;-58
2023/10/25 06:11:40;;;;;;;16.67;9.00;;;7.70;99.90;;;;;;4768698;30;20055;-59
2023/10/25 06:14:06;;;;;;;15.60;8.80;;;7.70;99.90;;;;;;4767553;30;20159;-58
2023/10/25 06:16:32;;;;;;;16.83;8.95;;;7.80;99.90;;;;;;4768508;30;20047;-59
2023/10/25 06:18:58;;;;;;;15.35;8.70;;;7.70;99.90;;;;;;4768183;30;20044;-58
2023/10/25 06:21:24;;;;;;;18.48;9.10;;;7.70;99.90;;;;;;4768378;30;20050;-58
2023/10/25 06:23:53;;;;;;;14.90;8.57;;;7.60;99.90;;;;;;4768670;30;20465;-59
2023/10/25 06:26:19;;;;;;;13.88;8.48;;;7.60;99.90;;;;;;4768094;30;20051;-58
2023/10/25 06:28:45;;;;;;;15.82;8.00;;;7.70;99.90;;;;;;4767960;30;20044;-59
2023/10/25 06:31:11;;;;;;;13.23;7.85;;;7.60;99.90;;;;;;4768028;30;20078;-59
2023/10/25 06:33:37;;;;;;;16.35;7.38;;;7.60;99.90;;;;;;4766885;30;20055;-46
2023/10/25 06:36:04;;;;;;;16.05;8.60;;;7.60;99.90;;;;;;4768347;30;20044;-46
2023/10/25 06:38:30;;;;;;;13.90;8.18;;;7.60;99.90;;;;;;4768432;30;20067;-47
2023/10/25 06:40:56;;;;;;;15.77;7.90;;;7.60;99.90;;;;;;4768037;30;20489;-46
2023/10/25 06:43:22;;;;;;;14.38;7.72;;;7.50;99.90;;;;;;4767968;30;20047;-45
2023/10/25 06:45:48;;;;;;;13.65;7.30;;;7.60;99.90;;;;;;4768194;30;20043;-46
2023/10/25 06:48:14;;;;;;;16.92;7.97;;;7.60;99.90;;;;;;4767684;30;20052;-45
2023/10/25 06:50:43;;;;;;;15.70;7.85;;;7.60;99.90;;;;;;4768350;30;20075;-45
2023/10/25 06:53:08;;;;;;;13.48;7.72;;;7.70;99.90;;;;;;4767903;30;20119;-46
2023/10/25 06:55:34;;;;;;;13.10;7.38;;;7.70;99.90;;;;;;4767614;30;20467;-47
2023/10/25 06:58:00;;;;;;;13.63;7.53;;;7.60;99.90;;;;;;4766166;30;20060;-47
2023/10/25 07:00:26;;;;;;;17.15;7.43;;;7.70;99.90;;;;;;4766440;30;20055;-45
2023/10/25 07:03:01;;;;;;;13.02;7.57;;;7.80;99.90;;;;;;4767556;30;20126;-48
2023/10/25 07:05:29;;;;;;;13.88;7.30;;;7.80;99.90;;;;;;4767961;30;20105;-47
2023/10/25 07:07:56;;;;;;;11.93;6.88;;;7.70;99.90;;;;;;4767561;30;20048;-46
2023/10/25 07:10:22;;;;;;;14.40;7.13;;;7.80;99.90;;;;;;4767622;30;20563;-46
2023/10/25 07:12:48;;;;;;;11.70;6.75;;;7.80;99.90;;;;;;4767571;30;20051;-46
2023/10/25 07:15:14;;;;;;;15.85;7.32;;;7.90;99.90;;;;;;4767784;30;20078;-48
2023/10/25 07:17:44;;;;;;;15.50;7.15;;;8.00;99.90;;;;;;4767779;30;20039;-46
2023/10/25 07:20:11;;;;;;;14.38;7.13;;;7.90;99.90;;;;;;4775586;30;20373;-45
2023/10/25 07:22:38;;;;;;;10.48;6.93;;;8.10;99.90;;;;;;4785567;29;20442;-47
2023/10/25 07:25:06;;;;;;;13.43;7.30;;;8.10;99.90;;;;;;4784935;29;20078;-46
2023/10/25 07:27:32;;;;;;;15.70;7.82;;;8.00;99.90;;;;;;4785343;29;20042;-47
2023/10/25 07:29:58;;;;;;;15.02;7.18;;;7.90;99.90;;;;;;4784020;29;20051;-46
2023/10/25 07:32:24;;;;;;;15.82;6.82;;;8.10;99.90;;;;;;4784048;30;20055;-46
2023/10/25 07:34:50;;;;;;;15.70;7.80;;;8.00;99.90;;;;;;4785170;29;20123;-59
2023/10/25 07:37:15;;;;;;;12.52;7.18;;;8.20;99.90;;;;;;4783860;30;20048;-59
2023/10/25 07:39:41;;;;;;;16.02;7.40;;;8.20;99.90;;;;;;4783309;29;20058;-59
2023/10/25 07:42:07;;;;;;;12.52;7.30;;;8.20;99.90;;;;;;4788843;29;20180;-58
2023/10/25 07:44:34;;;;;;;13.48;7.82;;;8.30;99.90;;;;;;4789020;29;20046;-59
2023/10/25 07:47:00;;;;;;;11.65;7.05;;;8.30;99.90;;;;;;4789181;29;20051;-58
2023/10/25 07:49:26;;;;;;;11.98;6.78;;;8.30;99.90;;;;;;4785118;29;20106;-59
2023/10/25 07:51:54;;;;;;;13.45;6.88;;;8.30;99.90;;;;;;4770552;30;20059;-59
2023/10/25 07:54:20;;;;;;;12.75;7.10;;;8.30;99.90;;;;;;4753001;30;20510;-58
2023/10/25 07:56:46;;;;;;;13.63;6.95;;;8.40;99.90;;;;;;4753171;30;20106;-59
2023/10/25 07:59:12;;;;;;;10.60;6.68;;;8.30;99.90;;;;;;4751694;30;20521;-59
2023/10/25 08:01:38;;;;;;;12.85;6.85;;;8.30;99.90;;;;;;4753047;30;20133;-58
2023/10/25 08:04:05;;;;;;;12.40;6.72;;;8.30;99.90;;;;;;4765588;30;20050;-59
2023/10/25 08:06:31;;;;;;;12.68;6.70;;;8.30;99.90;;;;;;4769902;30;20051;-60
2023/10/25 08:08:57;;;;;;;12.38;6.50;;;8.30;99.90;;;;;;4769707;30;20138;-59
2023/10/25 08:11:22;;;;;;;12.07;7.25;;;8.40;99.90;;;;;;4769835;30;20122;-58
2023/10/25 08:13:48;;;;;;;11.57;7.05;;;8.40;99.90;;;;;;4771211;30;20515;-58
2023/10/25 08:16:14;;;;;;;14.27;6.72;;;8.40;99.90;;;;;;4771442;30;20050;-58
2023/10/25 08:18:39;;;;;;;13.18;6.45;;;8.50;99.90;;;;;;4771497;30;20477;-59
2023/10/25 08:21:14;;;;;;;12.25;7.30;;;8.50;99.90;;;;;;4770678;30;20127;-59
2023/10/25 08:23:40;;;;;;;13.27;6.47;;;8.40;99.90;;;;;;4771045;30;20044;-58
2023/10/25 08:26:06;;;;;;;14.00;6.53;;;8.50;99.90;;;;;;4769438;30;20044;-59
2023/10/25 08:28:32;;;;;;;12.70;6.68;;;8.50;99.90;;;;;;4770503;30;20058;-58
2023/10/25 08:30:57;;;;;;;11.73;7.10;;;8.60;99.90;;;;;;4771286;30;20135;-59
2023/10/25 08:33:23;;;;;;;14.05;7.13;;;8.60;99.90;;;;;;4771489;30;20441;-59
2023/10/25 08:35:49;;;;;;;13.55;6.57;;;8.60;99.90;;;;;;4771221;30;20052;-59
2023/10/25 08:38:15;;;;;;;12.27;6.75;;;8.70;99.90;;;;;;4770953;30;20489;-59
2023/10/25 08:40:41;;;;;;;14.55;6.80;;;8.80;99.90;;;;;;4771156;30;20091;-59
2023/10/25 08:43:08;;;;;;;13.65;6.75;;;8.80;99.90;;;;;;4771303;30;20105;-58
2023/10/25 08:45:37;;;;;;;15.00;6.47;;;8.90;99.90;;;;;;4771687;30;20122;-59
2023/10/25 08:48:04;;;;;;;12.88;6.90;;;8.90;99.90;;;;;;4771245;30;20390;-58
2023/10/25 08:50:33;;;;;;;12.02;6.15;;;8.90;99.90;;;;;;4771383;30;20155;-59
2023/10/25 08:52:59;;;;;;;13.15;7.60;;;8.90;99.90;;;;;;4770401;30;20058;-59
2023/10/25 08:55:25;;;;;;;13.48;7.85;;;8.90;99.90;;;;;;4771342;30;20460;-58
2023/10/25 08:57:56;;;;;;;12.07;7.43;;;8.90;99.90;;;;;;4770763;30;20095;-59
2023/10/25 09:00:28;;;;;;;14.63;7.20;;;9.10;99.90;;;;;;4770539;30;20090;-58
2023/10/25 09:02:54;;;;;;;13.73;6.80;;;9.10;99.90;;;;;;4770858;30;20044;-58
2023/10/25 09:05:20;;;;;;;14.60;7.55;;;9.20;99.90;;;;;;4770520;30;20050;-58
2023/10/25 09:07:45;;;;;;;13.27;7.13;;;9.10;99.90;;;;;;4769306;30;20047;-58
2023/10/25 09:10:13;;;;;;;15.50;7.60;;;9.20;99.90;;;;;;4770663;30;20072;-59
2023/10/25 09:12:39;;;;;;;11.68;6.93;;;9.20;99.90;;;;;;4769608;30;20071;-59
2023/10/25 09:15:05;;;;;;;14.13;6.78;;;9.20;99.90;;;;;;4771053;30;20067;-58
2023/10/25 09:17:31;;;;;;;15.00;7.60;;;9.40;99.90;;;;;;4770777;30;20044;-59
2023/10/25 09:19:57;;;;;;;14.10;7.20;;;9.30;99.90;;;;;;4770705;30;20111;-59
2023/10/25 09:22:25;;;;;;;12.77;7.95;;;9.40;99.90;;;;;;4770965;30;20047;-59
2023/10/25 09:24:52;;;;;;;13.38;6.63;;;9.50;99.90;;;;;;4768377;30;20036;-58
2023/10/25 09:27:21;;;;;;;15.48;7.28;;;9.50;99.90;;;;;;4767297;30;20490;-59
2023/10/25 09:29:48;;;;;;;11.10;6.68;;;9.50;99.90;;;;;;4769257;30;20462;-58
2023/10/25 09:32:13;;;;;;;13.80;7.47;;;9.60;99.90;;;;;;4769935;30;20525;-58
2023/10/25 09:34:39;;;;;;;13.77;7.22;;;9.60;99.90;;;;;;4769824;30;20046;-58
2023/10/25 09:37:08;;;;;;;12.00;7.45;;;9.60;99.90;;;;;;4770410;30;20050;-57
2023/10/25 09:39:37;;;;;;;12.50;6.82;;;9.80;99.90;;;;;;4770255;30;20054;-59
2023/10/25 09:42:06;;;;;;;13.15;7.13;;;9.70;99.90;;;;;;4752703;30;20055;-59
2023/10/25 09:44:40;;;;;;;11.65;6.70;;;9.80;99.90;;;;;;4752645;30;20055;-59
2023/10/25 09:47:12;;;;;;;13.13;6.93;;;9.80;99.90;;;;;;4751451;29;20040;-58
2023/10/25 09:49:43;;;;;;;13.30;7.20;;;9.90;99.90;;;;;;4752240;30;20048;-59
2023/10/25 09:52:17;;;;;;;11.88;7.38;;;9.90;99.90;;;;;;4751443;30;20052;-59
2023/10/25 09:54:59;;;;;;;13.30;6.43;;;9.90;99.90;;;;;;4752515;30;20514;-58
2023/10/25 09:57:29;;;;;;;10.40;6.70;;;9.90;99.90;;;;;;4752161;30;20068;-46
2023/10/25 09:59:56;;;;;;;13.52;6.65;;;9.90;99.90;;;;;;4752539;30;20506;-46
2023/10/25 10:02:58;;;;;;;12.05;6.65;;;10.00;99.90;;;;;;4752735;30;20048;-46
2023/10/25 10:06:11;;;;;;;11.55;7.13;;;10.00;99.90;;;;;;4750233;30;20405;-49
2023/10/25 10:09:18;;;;;;;13.82;7.32;;;10.00;99.90;;;;;;4756071;30;20052;-47
2023/10/25 10:11:49;;;;;;;12.80;6.35;;;10.10;99.90;;;;;;4767112;30;20052;-46
2023/10/25 10:14:35;;;;;;;13.23;6.93;;;10.20;99.90;;;;;;4769840;30;20460;-46
2023/10/25 10:17:14;;;;;;;12.20;6.53;;;10.20;99.90;;;;;;4769566;30;20054;-45
2023/10/25 10:19:46;;;;;;;14.88;6.93;;;10.20;99.90;;;;;;4769246;30;20061;-45
2023/10/25 10:22:13;;;;;;;12.25;6.13;;;10.30;99.90;;;;;;4769556;30;20094;-49
2023/10/25 10:24:47;;;;;;;11.13;7.22;;;10.30;99.90;;;;;;4768643;30;20076;-48
2023/10/25 10:27:23;;;;;;;12.57;6.70;;;10.40;99.90;;;;;;4769780;30;20405;-47
2023/10/25 10:29:49;;;;;;;11.55;5.82;;;10.40;99.90;;;;;;4769563;30;20045;-45
2023/10/25 10:32:16;;;;;;;13.48;6.80;;;10.50;99.90;;;;;;4769628;30;20048;-46
2023/10/25 10:34:48;;;;;;;14.75;6.22;;;10.50;99.90;;;;;;4769713;30;20058;-59
2023/10/25 10:37:22;;;;;;;14.50;6.07;;;10.60;99.90;;;;;;4769560;30;20404;-59
2023/10/25 10:40:02;;;;;;;11.63;6.10;;;10.70;99.90;;;;;;4769179;30;20405;-59
2023/10/25 10:42:35;;;;;;;13.30;6.35;;;10.60;99.90;;;;;;4766962;30;20056;-59
2023/10/25 10:45:06;;;;;;;13.15;6.22;;;10.70;99.90;;;;;;4768154;30;20104;-59
2023/10/25 10:47:50;;;;;;;12.13;6.40;;;10.80;99.90;;;;;;4769401;30;20055;-47
2023/10/25 10:50:21;;;;;;;9.88;5.75;;;10.90;99.90;;;;;;4769306;30;20060;-59
2023/10/25 10:52:49;;;;;;;14.50;5.95;;;11.00;99.90;;;;;;4769327;30;20058;-58
2023/10/25 10:55:24;;;;;;;12.38;5.82;;;10.90;99.90;;;;;;4768976;30;20043;-45
2023/10/25 10:57:50;;;;;;;10.95;5.78;;;11.00;99.90;;;;;;4768201;30;20063;-45
2023/10/25 11:00:18;;;;;;;12.18;5.45;;;11.00;99.90;;;;;;4768557;30;20056;-46
2023/10/25 11:02:48;;;;;;;10.95;5.72;;;11.10;99.90;;;;;;4765793;30;20409;-49
2023/10/25 11:05:15;;;;;;;12.52;5.88;;;11.20;99.90;;;;;;4767231;30;20043;-45
2023/10/25 11:07:42;;;;;;;12.30;5.70;;;11.20;99.90;;;;;;4767499;30;20058;-59
2023/10/25 11:10:08;;;;;;;11.32;6.00;;;11.30;99.90;;;;;;4768648;30;20104;-59
2023/10/25 11:12:34;;;;;;;12.55;5.85;;;11.20;99.90;;;;;;4768467;30;20048;-59
2023/10/25 11:15:04;;;;;;;12.13;5.25;;;11.20;99.90;;;;;;4769112;29;20062;-60
2023/10/25 11:17:31;;;;;;;11.23;5.93;;;11.30;99.90;;;;;;4768510;30;20044;-59
2023/10/25 11:19:57;;;;;;;11.73;5.70;;;11.30;99.90;;;;;;4768572;30;20055;-60
2023/10/25 11:22:22;;;;;;;12.38;5.72;;;11.30;99.90;;;;;;4769353;30;20060;-57
2023/10/25 11:24:52;;;;;;;12.93;5.72;;;11.40;99.90;;;;;;4782902;30;20047;-58
2023/10/25 11:27:17;;;;;;;10.15;5.70;;;11.40;99.90;;;;;;4786529;29;20396;-58
2023/10/25 11:29:43;;;;;;;10.52;5.38;;;11.40;99.90;;;;;;4787047;29;20056;-58
2023/10/25 11:32:14;;;;;;;11.32;4.95;;;11.50;99.90;;;;;;4786592;29;20058;-59
2023/10/25 11:34:42;;;;;;;11.27;5.20;;;11.40;99.90;;;;;;4787052;29;20050;-58
2023/10/25 11:37:12;;;;;;;9.68;5.00;;;11.50;99.90;;;;;;4785462;30;20059;-58
2023/10/25 11:40:03;;;;;;;10.63;4.82;;;11.50;99.90;;;;;;4786542;29;20516;-58
2023/10/25 11:42:32;;;;;;;10.30;4.88;;;11.50;99.90;;;;;;4766904;29;20039;-59
2023/10/25 11:45:03;;;;;;;9.25;4.78;;;11.60;99.90;;;;;;4768644;30;20094;-58
2023/10/25 11:47:33;;;;;;;9.38;4.30;;;11.50;99.90;;;;;;4766610;30;20118;-58
2023/10/25 11:50:00;;;;;;;12.13;5.22;;;11.60;99.90;;;;;;4768653;30;20401;-58
2023/10/25 11:52:31;;;;;;;12.40;4.80;;;11.60;99.90;;;;;;4767699;30;20055;-58
2023/10/25 11:54:58;;;;;;;9.32;5.18;;;11.60;99.90;;;;;;4768918;30;20150;-57
2023/10/25 11:57:36;;;;;;;11.27;5.03;;;11.60;99.90;;;;;;4768827;29;20067;-58
2023/10/25 12:00:03;;;;;;;9.48;5.05;;;11.70;99.90;;;;;;4768647;30;20159;-48
2023/10/25 12:02:29;;;;;;;13.60;5.85;;;11.70;99.90;;;;;;4768681;30;20097;-45
2023/10/25 12:04:55;;;;;;;11.50;5.78;;;11.70;99.90;;;;;;4768726;30;20047;-46
2023/10/25 12:07:21;;;;;;;11.07;5.88;;;11.70;99.90;;;;;;4768783;30;20115;-45
2023/10/25 12:09:51;;;;;;;10.77;5.43;;;11.80;99.90;;;;;;4768727;30;20047;-47
2023/10/25 12:12:17;;;;;;;12.02;5.95;;;11.80;99.90;;;;;;4768589;30;20436;-47
2023/10/25 12:14:43;;;;;;;11.90;5.88;;;11.80;99.90;;;;;;4768650;30;20459;-58
2023/10/25 12:17:09;;;;;;;12.52;6.07;;;11.90;99.90;;;;;;4768476;30;20048;-58
2023/10/25 12:19:35;;;;;;;12.80;6.13;;;11.90;99.90;;;;;;4767287;30;20075;-58
2023/10/25 12:22:08;;;;;;;14.85;6.85;;;11.90;99.90;;;;;;4768409;30;20697;-58
2023/10/25 12:24:34;;;;;;;11.10;6.60;;;11.90;99.90;;;;;;4768265;30;20051;-58
2023/10/25 12:27:01;;;;;;;12.07;6.47;;;11.90;99.90;;;;;;4767853;30;20409;-58
2023/10/25 12:29:27;;;;;;;11.95;6.35;;;11.90;99.90;;;;;;4771863;30;20463;-57
2023/10/25 12:31:53;;;;;;;9.43;5.65;;;11.90;99.90;;;;;;4771600;30;20055;-58
2023/10/25 12:34:18;;;;;;;12.43;6.25;;;11.90;99.90;;;;;;4770798;30;20113;-58
2023/10/25 12:36:44;;;;;;;16.52;6.50;;;11.90;99.90;;;;;;4771765;30;20043;-59
2023/10/25 12:39:10;;;;;;;13.45;6.63;;;11.90;99.90;;;;;;4771817;30;20456;-58
2023/10/25 12:41:35;;;;;;;13.57;5.85;;;11.90;99.90;;;;;;4771277;30;20055;-59
2023/10/25 12:44:08;;;;;;;15.02;6.20;;;11.80;99.90;;;;;;4771193;30;20051;-58